New Colony, Texas
Current Conditions -  °F | °C
As of 4:15 AM on Saturday 22 Nov 2014 (Local Time) from KASL Reporting Station
Broken Clouds Broken Clouds  
Wind Chill: 49°   Ceiling: 2700
Heat Index: 49°   Visibility: 10mi
Dew Point: 47°   Wind: 0mph
Humidity: 91%   Direction: NA
Pressure: 30.17"   Gusts: NA
Location:  33.0065°N, 94.3775°W
Report Text: KASL 221015Z AUTO 00000KT 10SM BKN027 10/08 A3017 RMK AO1 T00960082
Loading
Personal Weather Stations






























Interactive Weather Map New forecast layout! Learn more

10-Day Weather Forecast

Advertisements
Track Severe Weather on mobile